createdAt,value
2022-12-12T00:01:23.383Z,51.40
2022-12-12T00:03:51.499Z,43.73
2022-12-12T00:06:20.276Z,46.77
2022-12-12T00:08:48.545Z,40.50
2022-12-12T00:11:17.282Z,38.90
2022-12-12T00:13:45.584Z,41.43
2022-12-12T00:16:15.002Z,34.67
2022-12-12T00:18:43.058Z,42.93
2022-12-12T00:21:16.051Z,36.00
2022-12-12T00:23:44.687Z,41.77
2022-12-12T00:26:18.749Z,38.37
2022-12-12T00:28:47.216Z,38.27
2022-12-12T00:31:17.553Z,47.43
2022-12-12T00:33:47.942Z,56.20
2022-12-12T00:36:16.273Z,50.93
2022-12-12T00:38:44.348Z,43.97
2022-12-12T00:41:12.904Z,41.40
2022-12-12T00:43:40.998Z,39.87
2022-12-12T00:46:09.433Z,44.13
2022-12-12T00:48:38.809Z,43.27
2022-12-12T00:51:09.457Z,35.20
2022-12-12T00:53:38.295Z,44.30
2022-12-12T00:56:07.592Z,42.40
2022-12-12T00:58:35.953Z,40.10
2022-12-12T01:01:10.592Z,38.63
2022-12-12T01:03:42.892Z,41.83
2022-12-12T01:06:11.443Z,42.07
2022-12-12T01:08:39.635Z,40.10
2022-12-12T01:11:10.218Z,37.73
2022-12-12T01:13:38.496Z,38.20
2022-12-12T01:16:07.659Z,40.50
2022-12-12T01:18:35.974Z,38.50
2022-12-12T01:21:08.356Z,38.87
2022-12-12T01:23:36.557Z,30.40
2022-12-12T01:26:06.859Z,28.63
2022-12-12T01:28:35.192Z,33.33
2022-12-12T01:31:03.444Z,32.50
2022-12-12T01:33:31.532Z,35.40
2022-12-12T01:35:59.835Z,31.17
2022-12-12T01:38:29.286Z,39.23
2022-12-12T01:40:57.321Z,33.40
2022-12-12T01:43:26.420Z,33.63
2022-12-12T01:46:30.367Z,32.63
2022-12-12T01:49:01.726Z,35.17
2022-12-12T01:51:31.005Z,36.37
2022-12-12T01:54:04.652Z,32.00
2022-12-12T01:56:33.568Z,35.90
2022-12-12T01:59:04.757Z,39.13
2022-12-12T02:01:33.209Z,34.60
2022-12-12T02:04:03.062Z,34.97
2022-12-12T02:06:31.811Z,31.60
2022-12-12T02:09:04.091Z,37.50
2022-12-12T02:11:34.254Z,34.17
2022-12-12T02:14:02.497Z,32.97
2022-12-12T02:16:44.597Z,33.37
2022-12-12T02:19:36.890Z,28.70
2022-12-12T02:22:09.050Z,31.23
2022-12-12T02:25:08.847Z,38.23
2022-12-12T02:28:26.051Z,37.27
2022-12-12T02:31:11.763Z,35.37
2022-12-12T02:33:46.246Z,34.67
2022-12-12T02:36:20.623Z,35.50
2022-12-12T02:38:55.820Z,30.13
2022-12-12T02:41:29.945Z,34.67
2022-12-12T02:44:14.785Z,30.70
2022-12-12T02:46:56.990Z,30.37
2022-12-12T02:49:29.826Z,31.33
2022-12-12T02:51:59.456Z,36.47
2022-12-12T02:54:27.471Z,31.63
2022-12-12T02:56:57.194Z,32.97
2022-12-12T02:59:32.180Z,35.63
2022-12-12T03:02:38.880Z,32.10
2022-12-12T03:05:38.310Z,34.80
2022-12-12T03:08:17.200Z,31.70
2022-12-12T03:10:54.190Z,31.30
2022-12-12T03:13:32.358Z,32.17
2022-12-12T03:16:11.760Z,32.03
2022-12-12T03:18:47.164Z,33.90
2022-12-12T03:21:20.424Z,31.20
2022-12-12T03:23:54.310Z,35.53
2022-12-12T03:26:27.484Z,32.90
2022-12-12T03:29:00.269Z,33.23
2022-12-12T03:31:32.096Z,34.83
2022-12-12T03:34:06.009Z,37.10
2022-12-12T03:36:38.804Z,29.50
2022-12-12T03:39:13.404Z,34.50
2022-12-12T03:41:44.399Z,29.87
2022-12-12T03:44:17.830Z,32.37
2022-12-12T03:46:52.955Z,33.50
2022-12-12T03:49:27.756Z,31.43
2022-12-12T03:52:01.636Z,43.70
2022-12-12T03:54:35.086Z,32.63
2022-12-12T03:57:07.299Z,33.67
2022-12-12T03:59:38.927Z,31.27
2022-12-12T04:02:12.962Z,32.03
2022-12-12T04:04:50.994Z,37.20
2022-12-12T04:07:23.489Z,33.37
2022-12-12T04:10:09.225Z,34.70
2022-12-12T04:13:03.405Z,30.97
2022-12-12T04:15:56.479Z,31.13
2022-12-12T04:18:34.217Z,33.07
2022-12-12T04:21:34.100Z,35.07
2022-12-12T04:24:07.783Z,30.93
2022-12-12T04:26:42.477Z,32.00
2022-12-12T04:29:23.345Z,33.60
2022-12-12T04:31:56.501Z,33.50
2022-12-12T04:34:30.607Z,40.10
2022-12-12T04:37:01.475Z,34.83
2022-12-12T04:39:31.516Z,38.70
2022-12-12T04:42:02.381Z,33.20
2022-12-12T04:44:33.139Z,35.40
2022-12-12T04:47:04.089Z,34.67
2022-12-12T04:49:34.471Z,31.93
2022-12-12T04:52:07.282Z,30.97
2022-12-12T04:54:42.130Z,35.70
2022-12-12T04:57:14.276Z,35.57
2022-12-12T04:59:42.447Z,30.43
2022-12-12T05:02:18.216Z,39.10
2022-12-12T05:04:51.911Z,39.53
2022-12-12T05:07:29.181Z,37.50
2022-12-12T05:09:59.421Z,32.80
2022-12-12T05:12:27.630Z,28.47
2022-12-12T05:14:55.714Z,30.07
2022-12-12T05:17:31.997Z,34.10
2022-12-12T05:20:00.135Z,32.57
2022-12-12T05:22:29.928Z,34.10
2022-12-12T05:24:57.918Z,35.10
2022-12-12T05:27:25.917Z,35.73
2022-12-12T05:29:53.911Z,32.17
2022-12-12T05:32:21.900Z,30.10
2022-12-12T05:34:49.943Z,35.30
2022-12-12T05:37:17.943Z,30.63
2022-12-12T05:39:47.422Z,37.77
2022-12-12T05:42:15.462Z,30.37
2022-12-12T05:44:43.446Z,31.03
2022-12-12T05:47:11.446Z,38.97
2022-12-12T05:49:39.426Z,32.80
2022-12-12T05:52:07.539Z,36.67
2022-12-12T05:54:35.539Z,32.13
2022-12-12T05:57:05.321Z,34.57
2022-12-12T05:59:33.424Z,42.17
2022-12-12T06:02:01.643Z,34.30
2022-12-12T06:04:29.840Z,36.27
2022-12-12T06:06:57.892Z,37.33
2022-12-12T06:09:26.023Z,36.50
2022-12-12T06:11:54.927Z,35.13
2022-12-12T06:14:24.470Z,37.17
2022-12-12T06:16:52.503Z,37.43
2022-12-12T06:19:21.125Z,37.70
2022-12-12T06:21:49.252Z,34.03
2022-12-12T06:24:17.305Z,36.03
2022-12-12T06:26:45.784Z,36.87
2022-12-12T06:29:14.777Z,36.50
2022-12-12T06:31:44.211Z,33.20
2022-12-12T06:34:12.237Z,41.43
2022-12-12T06:36:40.399Z,33.37
2022-12-12T06:39:09.627Z,38.97
2022-12-12T06:41:37.814Z,32.43
2022-12-12T06:44:06.238Z,34.70
2022-12-12T06:46:34.321Z,41.50
2022-12-12T06:49:09.475Z,36.90
2022-12-12T06:51:43.882Z,30.57
2022-12-12T06:54:12.536Z,29.17
2022-12-12T06:56:46.237Z,30.13
2022-12-12T06:59:16.763Z,33.77
2022-12-12T07:01:45.195Z,37.03
2022-12-12T07:04:15.601Z,31.10
2022-12-12T07:06:43.843Z,40.57
2022-12-12T07:09:12.015Z,38.20
2022-12-12T07:11:42.013Z,36.83
2022-12-12T07:14:11.895Z,39.57
2022-12-12T07:16:39.916Z,35.00
2022-12-12T07:19:08.348Z,36.27
2022-12-12T07:21:37.706Z,37.07
2022-12-12T07:24:06.125Z,36.60
2022-12-12T07:26:34.222Z,37.30
2022-12-12T07:29:05.234Z,35.87
2022-12-12T07:31:33.599Z,33.80
2022-12-12T07:34:01.664Z,38.37
2022-12-12T07:36:29.713Z,34.10
2022-12-12T07:38:59.068Z,34.00
2022-12-12T07:41:27.052Z,30.57
2022-12-12T07:43:55.154Z,31.93
2022-12-12T07:46:25.942Z,41.27
2022-12-12T07:48:54.881Z,40.67
2022-12-12T07:51:23.796Z,44.40
2022-12-12T07:53:51.872Z,33.47
2022-12-12T07:56:21.790Z,43.13
2022-12-12T07:58:51.093Z,36.27
2022-12-12T08:01:21.111Z,33.30
2022-12-12T08:03:50.220Z,42.83
2022-12-12T08:06:19.364Z,35.97
2022-12-12T08:08:48.751Z,35.73
2022-12-12T08:11:18.812Z,34.33
2022-12-12T08:13:48.291Z,32.37
2022-12-12T08:16:18.421Z,36.20
2022-12-12T08:18:46.811Z,34.73
2022-12-12T08:21:24.521Z,38.07
2022-12-12T08:23:57.056Z,38.60
2022-12-12T08:26:25.890Z,38.20
2022-12-12T08:28:55.396Z,37.60
2022-12-12T08:31:23.663Z,40.70
2022-12-12T08:33:52.919Z,37.50
2022-12-12T08:36:23.230Z,47.67
2022-12-12T08:38:51.658Z,42.70
2022-12-12T08:41:20.761Z,43.70
2022-12-12T08:43:49.093Z,39.20
2022-12-12T08:46:20.287Z,39.50
2022-12-12T08:48:48.929Z,38.33
2022-12-12T08:51:17.909Z,39.43
2022-12-12T08:53:46.611Z,44.83
2022-12-12T08:56:15.187Z,45.30
2022-12-12T08:58:43.718Z,44.57
2022-12-12T09:01:12.417Z,45.50
2022-12-12T09:03:41.795Z,36.87
2022-12-12T09:06:10.615Z,38.97
2022-12-12T09:08:39.080Z,43.20
2022-12-12T09:11:07.345Z,46.30
2022-12-12T09:13:35.817Z,46.33
2022-12-12T09:16:04.399Z,44.63
2022-12-12T09:18:32.616Z,41.67
2022-12-12T09:21:02.420Z,46.10
2022-12-12T09:23:31.011Z,50.00
2022-12-12T09:25:59.495Z,44.47
2022-12-12T09:28:27.729Z,50.60
2022-12-12T09:30:55.826Z,51.93
2022-12-12T09:33:23.935Z,38.03
2022-12-12T09:35:58.457Z,44.87
2022-12-12T09:38:28.314Z,35.97
2022-12-12T09:40:58.780Z,37.83
2022-12-12T09:43:30.518Z,39.60
2022-12-12T09:46:01.024Z,42.87
2022-12-12T09:48:36.570Z,40.40
2022-12-12T09:51:04.952Z,43.10
2022-12-12T09:53:34.695Z,35.07
2022-12-12T09:56:09.053Z,43.57
2022-12-12T09:58:46.864Z,30.80
2022-12-12T10:01:26.680Z,31.80
2022-12-12T10:04:06.085Z,36.30
2022-12-12T10:06:41.239Z,40.90
2022-12-12T10:09:35.544Z,33.37
2022-12-12T10:12:08.366Z,41.73
2022-12-12T10:14:41.806Z,40.73
2022-12-12T10:17:15.902Z,43.13
2022-12-12T10:19:50.233Z,39.37
2022-12-12T10:22:26.724Z,41.00
2022-12-12T10:25:03.617Z,39.90
2022-12-12T10:27:31.736Z,42.70
2022-12-12T10:30:08.008Z,40.43
2022-12-12T10:32:46.516Z,43.90
2022-12-12T10:35:26.350Z,41.60
2022-12-12T10:38:08.011Z,43.37
2022-12-12T10:40:49.277Z,38.80
2022-12-12T10:43:23.272Z,43.57
2022-12-12T10:46:23.349Z,37.60
2022-12-12T10:48:52.378Z,35.60
2022-12-12T10:51:23.797Z,34.40
2022-12-12T10:53:51.792Z,33.23
2022-12-12T10:56:24.552Z,30.33
2022-12-12T10:58:57.349Z,32.17
2022-12-12T11:02:00.627Z,34.90
2022-12-12T11:04:17.421Z,35.50
2022-12-12T11:06:49.195Z,29.50
2022-12-12T11:09:20.284Z,30.97
2022-12-12T11:12:00.585Z,32.20
2022-12-12T11:14:34.004Z,30.20
2022-12-12T11:17:02.104Z,29.30
2022-12-12T11:19:38.326Z,30.80
2022-12-12T11:22:06.654Z,36.60
2022-12-12T11:24:37.277Z,38.13
2022-12-12T11:27:08.464Z,37.03
2022-12-12T11:29:44.386Z,33.57
2022-12-12T11:32:15.431Z,29.00
2022-12-12T11:34:47.496Z,37.90
2022-12-12T11:37:18.034Z,42.30
2022-12-12T11:39:47.732Z,39.00
2022-12-12T11:42:22.636Z,41.03
2022-12-12T11:45:00.429Z,37.30
2022-12-12T11:47:30.520Z,37.87
2022-12-12T11:50:02.046Z,38.93
2022-12-12T11:52:34.786Z,33.13
2022-12-12T11:55:02.886Z,36.80
2022-12-12T11:57:51.021Z,35.07
2022-12-12T12:00:21.842Z,36.50
2022-12-12T12:03:21.355Z,34.87
2022-12-12T12:06:02.916Z,39.10
2022-12-12T12:08:45.073Z,35.50
2022-12-12T12:11:20.887Z,36.10
2022-12-12T12:14:05.797Z,37.57
2022-12-12T12:16:44.916Z,41.70
2022-12-12T12:19:19.554Z,34.57
2022-12-12T12:22:01.320Z,39.00
2022-12-12T12:24:40.437Z,37.70
2022-12-12T12:27:18.034Z,39.10
2022-12-12T12:30:08.654Z,35.77
2022-12-12T12:32:49.730Z,47.33
2022-12-12T12:35:28.791Z,35.50
2022-12-12T12:38:07.406Z,33.60
2022-12-12T12:40:49.982Z,37.28
2022-12-12T12:43:31.068Z,37.30
2022-12-12T12:46:08.194Z,38.03
2022-12-12T12:48:41.660Z,38.03
2022-12-12T12:51:16.304Z,35.60
2022-12-12T12:53:50.050Z,41.43
2022-12-12T12:56:26.598Z,38.97
2022-12-12T12:58:59.057Z,40.47
2022-12-12T13:01:37.689Z,37.07
2022-12-12T13:04:13.207Z,33.00
2022-12-12T13:06:45.581Z,26.20
2022-12-12T13:09:25.171Z,34.57
2022-12-12T13:12:00.617Z,38.30
2022-12-12T13:14:38.839Z,31.70
2022-12-12T13:17:16.373Z,34.40
2022-12-12T13:19:46.646Z,30.50
2022-12-12T13:22:18.851Z,34.53
2022-12-12T13:24:59.671Z,31.40
2022-12-12T13:27:34.882Z,27.80
2022-12-12T13:30:07.581Z,29.00
2022-12-12T13:33:00.209Z,29.60
2022-12-12T13:35:32.762Z,29.80
2022-12-12T13:38:01.225Z,28.83
2022-12-12T13:40:31.323Z,31.17
2022-12-12T13:43:09.067Z,29.43
2022-12-12T13:45:44.844Z,29.70
2022-12-12T13:48:51.626Z,32.00
2022-12-12T13:51:38.693Z,32.83
2022-12-12T13:54:53.201Z,34.10
2022-12-12T13:57:33.411Z,31.03
2022-12-12T14:00:22.514Z,32.23
2022-12-12T14:03:01.486Z,33.80
2022-12-12T14:05:32.681Z,39.53
2022-12-12T14:08:07.346Z,32.07
2022-12-12T14:10:38.022Z,41.57
2022-12-12T14:13:27.164Z,37.17
2022-12-12T14:16:04.408Z,30.63
2022-12-12T14:18:36.442Z,29.07
2022-12-12T14:21:07.771Z,37.73
2022-12-12T14:23:38.431Z,37.33
2022-12-12T14:26:41.795Z,32.97
2022-12-12T14:29:28.731Z,34.20
2022-12-12T14:32:13.164Z,34.77
2022-12-12T14:34:51.593Z,29.70
2022-12-12T14:37:39.809Z,30.47
2022-12-12T14:40:19.661Z,30.63
2022-12-12T14:43:21.185Z,34.33
2022-12-12T14:45:54.287Z,27.17
2022-12-12T14:48:25.437Z,27.80
2022-12-12T14:51:04.784Z,30.70
2022-12-12T14:53:40.221Z,32.07
2022-12-12T14:56:13.102Z,30.57
2022-12-12T14:58:43.806Z,34.73
2022-12-12T15:01:12.600Z,30.50
2022-12-12T15:03:45.462Z,29.03
2022-12-12T15:06:32.183Z,28.83
2022-12-12T15:09:10.930Z,29.63
2022-12-12T15:11:40.665Z,27.53
2022-12-12T15:14:19.201Z,32.33
2022-12-12T15:16:51.023Z,34.33
2022-12-12T15:19:24.329Z,33.63
2022-12-12T15:21:52.901Z,34.30
2022-12-12T15:24:23.336Z,31.80
2022-12-12T15:26:55.437Z,33.50
2022-12-12T15:29:26.885Z,31.07
2022-12-12T15:32:00.552Z,34.33
2022-12-12T15:34:34.780Z,31.53
2022-12-12T15:37:24.868Z,35.97
2022-12-12T15:40:17.460Z,30.13
2022-12-12T15:42:51.235Z,31.17
2022-12-12T15:45:23.446Z,33.17
2022-12-12T15:47:54.238Z,33.90
2022-12-12T15:50:24.831Z,31.03
2022-12-12T15:53:02.512Z,34.90
2022-12-12T15:55:30.974Z,44.53
2022-12-12T15:58:00.434Z,43.50
2022-12-12T16:00:35.541Z,34.83
2022-12-12T16:03:07.378Z,28.33
2022-12-12T16:05:37.865Z,33.40
2022-12-12T16:08:32.071Z,31.13
2022-12-12T16:11:02.211Z,25.40
2022-12-12T16:13:38.708Z,33.20
2022-12-12T16:16:38.692Z,30.17
2022-12-12T16:19:17.795Z,35.10
2022-12-12T16:21:45.903Z,32.43
2022-12-12T16:24:22.771Z,29.07
2022-12-12T16:26:51.185Z,31.93
2022-12-12T16:29:20.539Z,29.53
2022-12-12T16:31:49.537Z,31.00
2022-12-12T16:34:17.842Z,26.40
2022-12-12T16:36:45.854Z,33.37
2022-12-12T16:39:13.955Z,25.97
2022-12-12T16:41:42.486Z,34.93
2022-12-12T16:44:10.496Z,27.77
2022-12-12T16:46:39.878Z,35.27
2022-12-12T16:49:15.097Z,31.10
2022-12-12T16:51:43.754Z,34.23
2022-12-12T16:54:16.827Z,34.03
2022-12-12T16:56:52.280Z,27.37
2022-12-12T16:59:20.372Z,31.97
2022-12-12T17:01:49.773Z,34.20
2022-12-12T17:04:23.496Z,33.00
2022-12-12T17:06:52.031Z,28.37
2022-12-12T17:09:22.366Z,31.83
2022-12-12T17:11:52.420Z,27.67
2022-12-12T17:14:24.596Z,28.57
2022-12-12T17:16:54.841Z,32.43
2022-12-12T17:19:23.416Z,27.17
2022-12-12T17:21:51.446Z,29.13
2022-12-12T17:24:19.512Z,32.53
2022-12-12T17:26:47.572Z,27.20
2022-12-12T17:29:15.630Z,28.30
2022-12-12T17:31:43.678Z,28.77
2022-12-12T17:34:13.071Z,28.50
2022-12-12T17:36:41.117Z,30.40
2022-12-12T17:39:09.163Z,28.00
2022-12-12T17:41:37.204Z,28.70
2022-12-12T17:44:05.551Z,29.60
2022-12-12T17:46:33.594Z,35.43
2022-12-12T17:49:03.203Z,33.97
2022-12-12T17:51:32.576Z,31.17
2022-12-12T17:54:00.973Z,34.37
2022-12-12T17:56:28.980Z,35.47
2022-12-12T17:58:57.558Z,34.60
2022-12-12T18:01:27.636Z,32.57
2022-12-12T18:03:56.558Z,31.77
2022-12-12T18:06:25.344Z,28.93
2022-12-12T18:08:55.496Z,25.03
2022-12-12T18:11:27.399Z,29.30
2022-12-12T18:13:57.606Z,27.43
2022-12-12T18:16:27.501Z,28.90
2022-12-12T18:18:57.541Z,31.57
2022-12-12T18:21:59.283Z,47.50
2022-12-12T18:24:19.877Z,41.17
2022-12-12T18:26:52.285Z,38.97
2022-12-12T18:29:20.389Z,46.47
2022-12-12T18:31:48.677Z,48.97
2022-12-12T18:34:16.745Z,52.83
2022-12-12T18:36:44.753Z,53.60
2022-12-12T18:39:13.033Z,46.80
2022-12-12T18:41:43.123Z,43.63
2022-12-12T18:44:14.423Z,46.23
2022-12-12T18:46:43.751Z,34.97
2022-12-12T18:49:15.003Z,33.07
2022-12-12T18:51:43.552Z,33.30
2022-12-12T18:54:15.233Z,26.43
2022-12-12T18:56:46.404Z,31.53
2022-12-12T18:59:15.269Z,33.40
2022-12-12T19:01:43.573Z,33.40
2022-12-12T19:04:17.510Z,34.90
2022-12-12T19:06:49.145Z,37.83
2022-12-12T19:09:19.197Z,33.80
2022-12-12T19:11:49.076Z,34.10
2022-12-12T19:14:18.133Z,32.30
2022-12-12T19:16:46.272Z,33.43
2022-12-12T19:19:14.951Z,28.20
2022-12-12T19:21:43.730Z,28.47
2022-12-12T19:24:12.987Z,31.53
2022-12-12T19:26:43.584Z,32.07
2022-12-12T19:29:16.010Z,27.20
2022-12-12T19:31:44.816Z,36.87
2022-12-12T19:34:14.684Z,37.00
2022-12-12T19:36:43.290Z,29.30
2022-12-12T19:39:13.158Z,34.80
2022-12-12T19:41:41.791Z,30.43
2022-12-12T19:44:12.865Z,28.50
2022-12-12T19:46:42.936Z,33.87
2022-12-12T19:49:13.855Z,37.20
2022-12-12T19:51:44.734Z,34.50
2022-12-12T19:54:15.548Z,29.60
2022-12-12T19:56:44.055Z,27.53
2022-12-12T19:59:14.903Z,30.60
2022-12-12T20:01:44.064Z,26.23
2022-12-12T20:04:16.961Z,28.37
2022-12-12T20:06:46.237Z,25.00
2022-12-12T20:09:16.191Z,26.63
2022-12-12T20:11:45.291Z,23.13
2022-12-12T20:14:16.990Z,24.73
2022-12-12T20:16:45.813Z,25.93
2022-12-12T20:19:14.893Z,28.10
2022-12-12T20:22:02.218Z,28.03
2022-12-12T20:24:32.515Z,23.00
2022-12-12T20:27:02.916Z,22.37
2022-12-12T20:29:32.340Z,24.70
2022-12-12T20:32:01.264Z,29.57
2022-12-12T20:34:29.910Z,33.40
2022-12-12T20:36:58.592Z,27.70
2022-12-12T20:39:26.727Z,31.10
2022-12-12T20:41:56.523Z,31.97
2022-12-12T20:44:25.613Z,32.83
2022-12-12T20:46:55.195Z,27.87
2022-12-12T20:49:24.667Z,27.37
2022-12-12T20:51:57.573Z,30.03
2022-12-12T20:54:27.296Z,29.00
2022-12-12T20:56:55.657Z,33.70
2022-12-12T20:59:24.085Z,28.47
2022-12-12T21:01:52.907Z,25.10
2022-12-12T21:04:22.470Z,31.13
2022-12-12T21:06:52.253Z,28.50
2022-12-12T21:09:25.385Z,28.43
2022-12-12T21:11:55.380Z,31.43
2022-12-12T21:14:24.136Z,25.80
2022-12-12T21:16:53.099Z,24.23
2022-12-12T21:19:23.463Z,32.00
2022-12-12T21:21:52.227Z,25.77
2022-12-12T21:24:21.341Z,27.97
2022-12-12T21:26:49.787Z,33.87
2022-12-12T21:29:18.293Z,32.80
2022-12-12T21:31:51.664Z,48.93
2022-12-12T21:34:23.285Z,28.60
2022-12-12T21:36:52.901Z,25.57
2022-12-12T21:39:22.847Z,27.10
2022-12-12T21:41:51.388Z,30.47
2022-12-12T21:44:19.907Z,25.57
2022-12-12T21:46:48.226Z,33.00
2022-12-12T21:49:27.320Z,31.07
2022-12-12T21:51:59.495Z,28.07
2022-12-12T21:54:29.912Z,29.07
2022-12-12T21:56:58.934Z,26.20
2022-12-12T21:59:27.657Z,27.47
2022-12-12T22:01:57.111Z,26.87
2022-12-12T22:04:25.406Z,35.90
2022-12-12T22:06:53.600Z,30.50
2022-12-12T22:09:23.055Z,31.83
2022-12-12T22:11:52.520Z,32.53
2022-12-12T22:14:31.869Z,30.97
2022-12-12T22:16:59.942Z,34.70
2022-12-12T22:19:28.201Z,35.60
2022-12-12T22:21:56.231Z,40.03
2022-12-12T22:24:26.371Z,42.87
2022-12-12T22:26:54.421Z,41.23
2022-12-12T22:29:22.515Z,37.13
2022-12-12T22:31:52.294Z,31.90
2022-12-12T22:34:23.140Z,32.67
2022-12-12T22:36:51.751Z,29.13
2022-12-12T22:39:23.218Z,30.50
2022-12-12T22:41:52.841Z,24.97
2022-12-12T22:44:22.541Z,27.20
2022-12-12T22:46:52.434Z,30.13
2022-12-12T22:49:25.526Z,27.47
2022-12-12T22:51:54.396Z,23.83
2022-12-12T22:54:22.661Z,27.70
2022-12-12T22:56:52.060Z,28.33
2022-12-12T22:59:20.204Z,28.30
2022-12-12T23:01:48.304Z,27.47
2022-12-12T23:04:16.650Z,28.20
2022-12-12T23:06:45.303Z,24.90
2022-12-12T23:09:15.541Z,23.63
2022-12-12T23:11:44.542Z,30.10
2022-12-12T23:14:16.108Z,22.47
2022-12-12T23:16:45.020Z,23.97
2022-12-12T23:19:15.886Z,30.00
2022-12-12T23:21:44.601Z,24.40
2022-12-12T23:24:13.206Z,24.80
2022-12-12T23:26:41.549Z,20.83
2022-12-12T23:29:12.686Z,20.27
2022-12-12T23:31:42.217Z,20.80
2022-12-12T23:34:16.241Z,20.70
2022-12-12T23:36:44.923Z,19.93
2022-12-12T23:39:13.950Z,23.00
2022-12-12T23:41:42.742Z,15.57
2022-12-12T23:44:14.034Z,18.80
2022-12-12T23:46:43.717Z,17.97
2022-12-12T23:49:16.792Z,23.53
2022-12-12T23:51:47.305Z,23.70
2022-12-12T23:54:18.265Z,23.50
2022-12-12T23:56:46.769Z,23.10
2022-12-12T23:59:18.173Z,18.47
